Time;durP1;ratioP1;P1;durP2;ratioP2;P2;SDS_P1;SDS_P2;PMS_P1;PMS_P2;Temp;Humidity;BMP_temperature;BMP_pressure;BME280_temperature;BME280_humidity;BME280_pressure;Samples;Min_cycle;Max_cycle;Signal;HPM_P1;HPM_P2
2022/07/25 00:01:46;;;;;;;5.88;1.00;;;;;;;22.65;74.47;100480.56;7382339;19;20015;-66
2022/07/25 00:04:13;;;;;;;3.75;1.15;;;;;;;22.66;74.48;100488.38;7377182;19;20021;-65
2022/07/25 00:06:41;;;;;;;2.53;0.55;;;;;;;22.65;73.96;100481.41;7383880;19;20082;-63
2022/07/25 00:09:09;;;;;;;4.50;0.52;;;;;;;22.63;74.40;100467.41;7389873;19;20029;-67
2022/07/25 00:11:36;;;;;;;2.83;0.50;;;;;;;22.63;74.40;100470.09;7388510;19;20017;-66
2022/07/25 00:14:04;;;;;;;4.13;0.75;;;;;;;22.60;74.54;100457.94;7389223;19;20014;-66
2022/07/25 00:16:32;;;;;;;2.97;0.45;;;;;;;22.63;74.75;100453.16;7390363;19;20502;-66
2022/07/25 00:18:59;;;;;;;7.88;1.85;;;;;;;22.65;74.78;100453.75;7386150;19;20340;-65
2022/07/25 00:21:26;;;;;;;4.25;0.68;;;;;;;22.66;74.98;100460.72;7388310;19;20557;-62
2022/07/25 00:23:53;;;;;;;8.25;0.50;;;;;;;22.67;74.75;100452.44;7388756;19;20480;-62
2022/07/25 00:26:20;;;;;;;3.95;0.50;;;;;;;22.66;75.26;100447.31;7389519;19;20841;-62
2022/07/25 00:28:47;;;;;;;6.57;0.70;;;;;;;22.66;74.81;100444.63;7389561;19;20019;-62
2022/07/25 00:31:14;;;;;;;2.40;0.47;;;;;;;22.67;74.84;100430.16;7388026;19;20031;-63
2022/07/25 00:33:41;;;;;;;5.65;0.75;;;;;;;22.65;74.67;100437.66;7386013;19;20416;-65
2022/07/25 00:36:08;;;;;;;5.72;1.05;;;;;;;22.61;75.10;100435.44;7387026;19;20487;-61
2022/07/25 00:38:35;;;;;;;9.73;0.85;;;;;;;22.59;75.58;100426.03;7387250;19;20018;-63
2022/07/25 00:41:03;;;;;;;3.80;0.60;;;;;;;22.57;75.47;100426.25;7387848;19;20034;-62
2022/07/25 00:43:30;;;;;;;4.53;0.63;;;;;;;22.58;75.57;100427.88;7389488;19;20514;-63
2022/07/25 00:45:57;;;;;;;7.85;0.70;;;;;;;22.58;75.59;100427.88;7389176;19;20491;-65
2022/07/25 00:48:29;;;;;;;4.13;0.55;;;;;;;22.56;75.41;100447.94;7386641;19;20477;-66
2022/07/25 00:50:57;;;;;;;5.57;0.60;;;;;;;22.47;75.58;100444.03;7387158;19;20018;-66
2022/07/25 00:53:24;;;;;;;5.03;1.02;;;;;;;22.42;75.49;100434.03;7389370;19;20015;-65
2022/07/25 00:55:52;;;;;;;4.93;0.50;;;;;;;22.38;75.95;100427.50;7387556;19;20248;-61
2022/07/25 00:58:19;;;;;;;3.75;0.55;;;;;;;22.37;75.76;100425.88;7387745;19;20096;-62
2022/07/25 01:00:46;;;;;;;2.85;0.60;;;;;;;22.39;75.59;100428.34;7385998;19;20025;-61
2022/07/25 01:03:14;;;;;;;5.30;0.50;;;;;;;22.39;75.74;100431.00;7388720;19;20022;-61
2022/07/25 01:05:41;;;;;;;3.00;0.50;;;;;;;22.36;75.66;100424.25;7385060;19;20010;-62
2022/07/25 01:08:09;;;;;;;3.47;0.70;;;;;;;22.34;75.54;100418.34;7386962;19;20074;-62
2022/07/25 01:10:36;;;;;;;2.92;0.43;;;;;;;22.27;75.82;100422.19;7389100;19;20031;-65
2022/07/25 01:13:04;;;;;;;3.97;0.50;;;;;;;22.24;76.09;100404.72;7386495;19;20082;-61
2022/07/25 01:15:30;;;;;;;4.45;0.60;;;;;;;22.22;75.96;100406.00;7386619;19;20090;-61
2022/07/25 01:17:57;;;;;;;4.38;0.50;;;;;;;22.22;75.70;100406.84;7386770;19;20010;-63
2022/07/25 01:20:27;;;;;;;5.97;1.10;;;;;;;22.21;75.70;100402.50;7383834;19;20572;-66
2022/07/25 01:22:55;;;;;;;3.25;0.50;;;;;;;22.21;75.54;100413.25;7387309;19;20011;-63
2022/07/25 01:25:23;;;;;;;2.38;0.50;;;;;;;22.24;75.35;100418.13;7386291;19;20018;-61
2022/07/25 01:27:52;;;;;;;3.25;0.50;;;;;;;22.24;75.12;100407.41;7387027;19;20042;-62
2022/07/25 01:30:22;;;;;;;3.33;0.50;;;;;;;22.24;75.37;100401.25;7386007;19;20018;-63
2022/07/25 01:32:49;;;;;;;3.28;0.50;;;;;;;22.23;74.64;100399.59;7384724;19;20014;-65
2022/07/25 01:35:16;;;;;;;3.92;0.50;;;;;;;22.20;74.36;100418.84;7381767;19;20385;-66
2022/07/25 01:37:43;;;;;;;3.63;0.47;;;;;;;22.18;74.20;100414.53;7383394;19;20015;-65
2022/07/25 01:40:12;;;;;;;4.05;0.40;;;;;;;22.19;73.91;100412.69;7387465;19;20014;-66
2022/07/25 01:42:40;;;;;;;2.97;0.38;;;;;;;22.14;73.20;100405.38;7386376;19;20182;-66
2022/07/25 01:45:08;;;;;;;2.47;0.50;;;;;;;22.13;73.38;100406.41;7387073;19;20094;-65
2022/07/25 01:47:35;;;;;;;2.92;0.75;;;;;;;22.11;73.06;100410.38;7384698;19;20033;-65
2022/07/25 01:50:03;;;;;;;3.83;0.50;;;;;;;22.15;73.17;100408.81;7383440;19;20018;-66
2022/07/25 01:52:30;;;;;;;3.35;0.50;;;;;;;22.10;71.97;100414.09;7385187;19;20122;-66
2022/07/25 01:54:57;;;;;;;3.03;0.47;;;;;;;22.05;72.18;100408.63;7381275;19;20025;-64
2022/07/25 01:57:24;;;;;;;3.20;0.60;;;;;;;22.03;72.07;100419.59;7384880;19;20010;-64
2022/07/25 01:59:56;;;;;;;4.30;0.60;;;;;;;22.03;71.54;100400.84;7386391;19;20042;-64
2022/07/25 02:02:23;;;;;;;3.00;0.50;;;;;;;22.05;71.18;100406.75;7386828;19;20102;-65
2022/07/25 02:04:52;;;;;;;4.53;0.57;;;;;;;22.04;71.20;100394.44;7383729;19;20110;-66
2022/07/25 02:07:19;;;;;;;2.75;0.60;;;;;;;22.04;71.67;100393.63;7384342;19;20321;-66
2022/07/25 02:09:46;;;;;;;4.05;0.47;;;;;;;22.01;71.19;100392.22;7386040;19;20018;-66
2022/07/25 02:12:13;;;;;;;4.38;0.93;;;;;;;22.01;70.92;100399.44;7384203;19;20011;-66
2022/07/25 02:14:40;;;;;;;2.20;0.50;;;;;;;21.97;71.07;100409.03;7386682;19;20451;-66
2022/07/25 02:17:07;;;;;;;5.50;0.70;;;;;;;21.95;71.06;100403.88;7383755;19;20021;-65
2022/07/25 02:19:35;;;;;;;4.60;0.50;;;;;;;21.90;70.88;100395.72;7382844;19;20019;-66
2022/07/25 02:22:02;;;;;;;3.20;0.60;;;;;;;21.91;71.41;100393.84;7383501;19;20360;-66
2022/07/25 02:24:29;;;;;;;4.82;0.60;;;;;;;21.90;70.42;100394.91;7383749;19;20025;-65
2022/07/25 02:26:56;;;;;;;7.35;1.02;;;;;;;21.85;71.20;100410.88;7384532;19;20033;-65
2022/07/25 02:29:24;;;;;;;6.68;0.75;;;;;;;21.74;70.70;100397.28;7380063;19;20009;-65
2022/07/25 02:31:51;;;;;;;4.50;0.65;;;;;;;21.69;71.18;100399.03;7382360;19;20050;-65
2022/07/25 02:34:18;;;;;;;2.67;0.50;;;;;;;21.64;71.53;100398.91;7381057;19;20035;-66
2022/07/25 02:36:46;;;;;;;6.57;0.85;;;;;;;21.61;72.03;100394.03;7384042;19;20049;-64
2022/07/25 02:39:13;;;;;;;5.53;0.60;;;;;;;21.57;71.95;100384.88;7384302;19;20018;-65
2022/07/25 02:41:39;;;;;;;4.65;0.60;;;;;;;21.52;71.97;100382.06;7383292;19;20369;-65
2022/07/25 02:44:06;;;;;;;7.45;1.25;;;;;;;21.54;72.59;100377.28;7384303;19;20114;-65
2022/07/25 02:46:34;;;;;;;4.20;0.70;;;;;;;21.56;72.68;100378.69;7384530;19;20070;-65
2022/07/25 02:49:01;;;;;;;6.38;0.65;;;;;;;21.60;72.15;100387.06;7380184;19;20014;-65
2022/07/25 02:51:28;;;;;;;3.17;0.55;;;;;;;21.64;71.80;100393.56;7383554;19;20010;-65
2022/07/25 02:53:55;;;;;;;2.95;0.70;;;;;;;21.68;72.15;100394.75;7383711;19;20011;-65
2022/07/25 02:56:25;;;;;;;4.45;0.63;;;;;;;21.68;71.73;100400.09;7383056;19;20018;-65
2022/07/25 02:58:56;;;;;;;3.85;0.70;;;;;;;21.67;71.80;100399.28;7385279;19;20010;-65
2022/07/25 03:01:23;;;;;;;3.30;0.70;;;;;;;21.66;71.37;100394.16;7384607;19;20014;-66
2022/07/25 03:03:50;;;;;;;3.47;0.60;;;;;;;21.64;71.58;100388.22;7382021;19;20022;-65
2022/07/25 03:06:17;;;;;;;5.03;0.90;;;;;;;21.68;72.41;100394.75;7384385;19;20775;-64
2022/07/25 03:08:44;;;;;;;10.43;1.40;;;;;;;21.71;71.98;100395.06;7383930;19;20014;-65
2022/07/25 03:11:12;;;;;;;3.60;0.70;;;;;;;21.70;72.14;100390.75;7384997;19;20011;-67
2022/07/25 03:13:39;;;;;;;6.28;0.63;;;;;;;21.70;72.29;100384.59;7382153;19;20383;-65
2022/07/25 03:16:06;;;;;;;8.68;0.80;;;;;;;21.69;71.66;100389.13;7383789;19;20277;-66
2022/07/25 03:18:33;;;;;;;4.95;0.60;;;;;;;21.69;71.90;100388.31;7381157;19;20105;-65
2022/07/25 03:21:01;;;;;;;4.10;0.60;;;;;;;21.68;72.07;100384.84;7381316;19;20025;-64
2022/07/25 03:23:29;;;;;;;4.82;1.00;;;;;;;21.67;72.70;100391.25;7381961;19;20010;-64
2022/07/25 03:25:56;;;;;;;6.43;0.70;;;;;;;21.68;72.09;100379.50;7384691;19;20095;-66
2022/07/25 03:28:24;;;;;;;3.30;0.70;;;;;;;21.61;72.32;100389.50;7382266;19;20183;-66
2022/07/25 03:30:52;;;;;;;5.35;0.73;;;;;;;21.63;71.98;100383.91;7382675;19;20425;-64
2022/07/25 03:33:18;;;;;;;8.45;0.80;;;;;;;21.62;72.33;100382.28;7383315;19;20014;-66
2022/07/25 03:35:45;;;;;;;3.47;0.70;;;;;;;21.62;72.89;100383.09;7376421;19;20040;-65
2022/07/25 03:38:13;;;;;;;6.03;0.77;;;;;;;21.61;72.52;100378.78;7383368;19;20467;-64
2022/07/25 03:40:39;;;;;;;8.18;0.75;;;;;;;21.56;72.64;100376.00;7381024;19;20018;-64
2022/07/25 03:43:06;;;;;;;9.20;0.90;;;;;;;21.56;73.27;100364.47;7388514;19;20010;-66
2022/07/25 03:45:33;;;;;;;7.75;1.02;;;;;;;21.54;73.10;100371.94;7389203;19;20010;-66
2022/07/25 03:48:01;;;;;;;2.58;0.60;;;;;;;21.53;72.74;100371.13;7387174;19;20523;-66
2022/07/25 03:50:28;;;;;;;2.58;0.80;;;;;;;21.53;72.55;100368.47;7387046;19;20018;-68
2022/07/25 03:52:55;;;;;;;5.30;0.70;;;;;;;21.54;72.65;100367.38;7390409;19;20015;-65
2022/07/25 03:55:22;;;;;;;2.92;0.80;;;;;;;21.55;72.73;100374.38;7390443;19;20014;-65
2022/07/25 03:57:49;;;;;;;6.38;1.00;;;;;;;21.56;72.19;100369.84;7390856;19;20014;-65
2022/07/25 04:00:16;;;;;;;5.53;1.15;;;;;;;21.56;72.98;100359.94;7389744;19;20700;-64
2022/07/25 04:02:43;;;;;;;4.88;0.70;;;;;;;21.56;73.20;100370.66;7390274;19;20010;-66
2022/07/25 04:05:10;;;;;;;5.72;1.10;;;;;;;21.56;72.26;100370.66;7388194;19;20463;-66
2022/07/25 04:07:38;;;;;;;6.35;0.80;;;;;;;21.55;72.56;100373.56;7388458;19;20015;-66
2022/07/25 04:10:06;;;;;;;7.35;1.23;;;;;;;21.56;72.67;100370.66;7389932;19;20020;-65
2022/07/25 04:12:33;;;;;;;5.15;0.90;;;;;;;21.58;73.04;100373.91;7389240;19;20015;-65
2022/07/25 04:15:00;;;;;;;6.43;0.82;;;;;;;21.57;72.81;100372.28;7390894;19;20021;-66
2022/07/25 04:17:27;;;;;;;3.72;0.82;;;;;;;21.55;72.80;100368.19;7390400;19;20010;-66
2022/07/25 04:19:56;;;;;;;7.72;1.23;;;;;;;21.52;73.16;100369.50;7387235;19;20018;-66
2022/07/25 04:22:23;;;;;;;6.60;0.93;;;;;;;21.53;73.43;100363.09;7387163;19;20011;-64
2022/07/25 04:24:54;;;;;;;6.75;0.90;;;;;;;21.53;73.25;100357.75;7388484;19;20371;-65
2022/07/25 04:27:24;;;;;;;10.18;1.23;;;;;;;21.53;72.96;100364.97;7390471;19;20074;-65
2022/07/25 04:29:51;;;;;;;5.97;0.90;;;;;;;21.52;73.25;100356.13;7389509;19;20358;-66
2022/07/25 04:32:18;;;;;;;8.15;1.33;;;;;;;21.52;73.13;100361.47;7387939;19;20025;-66
2022/07/25 04:34:54;;;;;;;10.20;1.20;;;;;;;21.53;72.79;100364.97;7385358;19;20709;-64
2022/07/25 04:37:24;;;;;;;7.80;0.80;;;;;;;21.51;73.27;100359.84;7385951;19;20018;-64
2022/07/25 04:39:51;;;;;;;10.20;1.23;;;;;;;21.52;73.93;100345.41;7383895;19;20103;-66
2022/07/25 04:42:18;;;;;;;8.27;0.90;;;;;;;21.50;73.47;100339.47;7388498;19;20022;-67
2022/07/25 04:44:52;;;;;;;6.03;0.85;;;;;;;21.50;73.55;100342.13;7389207;19;20439;-66
2022/07/25 04:47:21;;;;;;;7.05;1.10;;;;;;;21.49;73.34;100351.22;7389155;19;20029;-66
2022/07/25 04:49:48;;;;;;;9.45;1.65;;;;;;;21.45;73.17;100363.44;7383975;19;20014;-69
2022/07/25 04:52:15;;;;;;;5.65;1.42;;;;;;;21.43;73.57;100359.41;7384819;19;20495;-67
2022/07/25 04:54:42;;;;;;;9.43;1.02;;;;;;;21.41;73.47;100361.47;7387051;19;20332;-65
2022/07/25 04:57:09;;;;;;;9.90;1.17;;;;;;;21.42;73.93;100352.41;7389155;19;20465;-66
2022/07/25 04:59:36;;;;;;;11.35;1.70;;;;;;;21.40;73.49;100352.63;7388762;19;20018;-65
2022/07/25 05:02:04;;;;;;;8.85;1.02;;;;;;;21.40;73.54;100354.50;7388287;19;20009;-65
2022/07/25 05:04:31;;;;;;;6.85;1.08;;;;;;;21.38;73.28;100359.28;7386864;19;20035;-65
2022/07/25 05:07:00;;;;;;;8.13;1.23;;;;;;;21.33;73.72;100354.63;7387341;19;20011;-65
2022/07/25 05:09:27;;;;;;;3.30;0.82;;;;;;;21.31;73.38;100354.88;7383555;19;20028;-66
2022/07/25 05:11:54;;;;;;;5.95;1.30;;;;;;;21.31;73.14;100354.88;7388255;19;20020;-65
2022/07/25 05:14:22;;;;;;;8.85;0.80;;;;;;;21.32;72.99;100356.50;7384407;19;20017;-64
2022/07/25 05:16:49;;;;;;;6.93;1.40;;;;;;;21.34;73.52;100349.03;7388750;19;20025;-66
2022/07/25 05:19:16;;;;;;;6.47;0.80;;;;;;;21.34;72.83;100359.75;7384950;19;20062;-65
2022/07/25 05:21:43;;;;;;;6.35;1.00;;;;;;;21.38;72.54;100351.25;7387207;19;20332;-65
2022/07/25 05:24:10;;;;;;;4.40;0.85;;;;;;;21.39;72.25;100353.69;7384889;19;20031;-65
2022/07/25 05:26:37;;;;;;;8.82;2.25;;;;;;;21.38;72.38;100351.25;7388300;19;20015;-65
2022/07/25 05:29:04;;;;;;;6.00;0.95;;;;;;;21.35;72.23;100360.56;7385652;19;20368;-65
2022/07/25 05:31:31;;;;;;;7.38;1.35;;;;;;;21.28;72.26;100362.56;7384516;19;20022;-65
2022/07/25 05:33:58;;;;;;;8.68;0.90;;;;;;;21.27;72.95;100355.56;7382021;19;20010;-66
2022/07/25 05:36:25;;;;;;;10.60;2.10;;;;;;;21.26;73.36;100354.75;7385563;19;20019;-63
2022/07/25 05:38:52;;;;;;;9.50;1.08;;;;;;;21.28;73.48;100366.03;7385134;19;20306;-62
2022/07/25 05:41:19;;;;;;;10.32;1.38;;;;;;;21.31;73.07;100362.09;7385988;19;20082;-62
2022/07/25 05:43:47;;;;;;;7.15;1.45;;;;;;;21.30;72.28;100360.44;7385585;19;20006;-62
2022/07/25 05:46:17;;;;;;;10.82;2.15;;;;;;;21.26;72.71;100367.31;7387046;19;20459;-63
2022/07/25 05:48:44;;;;;;;2.97;0.70;;;;;;;21.28;73.18;100362.56;7383659;19;20018;-63
2022/07/25 05:51:11;;;;;;;7.85;0.75;;;;;;;21.25;72.50;100363.00;7384700;19;20046;-63
2022/07/25 05:53:38;;;;;;;8.45;1.58;;;;;;;21.21;72.49;100361.84;7385035;19;20438;-64
2022/07/25 05:56:06;;;;;;;7.18;0.95;;;;;;;21.20;72.76;100357.53;7386772;19;20463;-64
2022/07/25 05:58:32;;;;;;;5.75;1.15;;;;;;;21.22;73.41;100366.16;7386322;19;20018;-62
2022/07/25 06:00:59;;;;;;;8.25;1.10;;;;;;;21.26;72.47;100359.28;7386682;19;20078;-63
2022/07/25 06:03:26;;;;;;;8.57;0.75;;;;;;;21.28;72.47;100349.97;7384809;19;20096;-62
2022/07/25 06:05:55;;;;;;;8.93;1.08;;;;;;;21.30;72.17;100347.88;7383661;19;20448;-62
2022/07/25 06:08:22;;;;;;;7.47;0.85;;;;;;;21.27;71.28;100351.03;7384236;19;20402;-63
2022/07/25 06:10:50;;;;;;;6.28;0.95;;;;;;;21.28;71.59;100349.97;7385550;19;20054;-62
2022/07/25 06:13:17;;;;;;;2.83;0.65;;;;;;;21.27;71.20;100353.72;7386720;19;20006;-62
2022/07/25 06:15:46;;;;;;;7.38;0.82;;;;;;;21.28;71.29;100359.88;7385082;19;20040;-62
2022/07/25 06:18:13;;;;;;;6.82;0.77;;;;;;;21.31;70.62;100367.44;7386709;19;20034;-62
2022/07/25 06:20:41;;;;;;;3.92;0.80;;;;;;;21.28;69.72;100362.56;7381746;19;20071;-63
2022/07/25 06:23:08;;;;;;;4.25;0.77;;;;;;;21.27;70.65;100369.78;7386058;19;20418;-63
2022/07/25 06:25:35;;;;;;;6.22;0.60;;;;;;;21.30;70.21;100358.59;7383062;19;20011;-63
2022/07/25 06:28:03;;;;;;;6.60;0.90;;;;;;;21.30;70.05;100363.13;7386114;19;20473;-63
2022/07/25 06:30:30;;;;;;;5.90;0.80;;;;;;;21.32;69.62;100367.22;7385103;19;20021;-63
2022/07/25 06:32:57;;;;;;;3.15;0.55;;;;;;;21.37;69.71;100363.81;7385811;19;20018;-63
2022/07/25 06:35:25;;;;;;;5.68;0.50;;;;;;;21.36;69.15;100374.75;7382087;19;20262;-63
2022/07/25 06:37:52;;;;;;;8.55;0.70;;;;;;;21.37;69.23;100381.75;7385045;19;20518;-63
2022/07/25 06:40:19;;;;;;;5.70;0.60;;;;;;;21.32;68.88;100379.78;7384115;19;20027;-62
2022/07/25 06:42:46;;;;;;;6.45;0.70;;;;;;;21.28;69.09;100381.31;7383542;19;20025;-62
2022/07/25 06:45:14;;;;;;;3.90;0.82;;;;;;;21.28;68.64;100378.63;7382636;19;20366;-63
2022/07/25 06:47:42;;;;;;;4.30;0.50;;;;;;;21.27;68.05;100385.84;7385973;19;20014;-62
2022/07/25 06:50:12;;;;;;;6.45;0.50;;;;;;;21.28;68.22;100386.66;7380557;19;20059;-62
2022/07/25 06:52:40;;;;;;;8.68;0.63;;;;;;;21.29;68.62;100381.03;7382274;19;20014;-62
2022/07/25 06:55:09;;;;;;;4.68;0.60;;;;;;;21.34;69.80;100385.69;7382916;19;20315;-62
2022/07/25 06:57:36;;;;;;;8.38;0.60;;;;;;;21.36;69.42;100382.78;7383393;19;20015;-62
2022/07/25 07:00:08;;;;;;;8.18;0.70;;;;;;;21.30;68.48;100384.53;7383364;19;20046;-63
2022/07/25 07:02:46;;;;;;;2.43;0.50;;;;;;;21.28;68.60;100383.97;7382694;19;20019;-63
2022/07/25 07:05:13;;;;;;;5.65;0.73;;;;;;;21.28;68.93;100394.69;7381786;19;20292;-62
2022/07/25 07:07:40;;;;;;;2.67;0.40;;;;;;;21.29;67.97;100388.25;7383087;19;20365;-63
2022/07/25 07:10:13;;;;;;;;;;;;;;;21.28;67.50;100390.13;7382917;19;20032;-63
2022/07/25 07:12:40;;;;;;;7.20;0.85;;;;;;;21.22;67.78;100390.25;7383707;19;20233;-66
2022/07/25 07:15:07;;;;;;;5.57;0.50;;;;;;;21.20;67.45;100389.66;7384521;19;20316;-65
2022/07/25 07:17:35;;;;;;;6.13;0.50;;;;;;;21.21;68.19;100394.78;7390143;19;20022;-66
2022/07/25 07:20:05;;;;;;;3.42;0.50;;;;;;;21.22;68.26;100399.09;7389768;19;20082;-66
2022/07/25 07:22:46;;;;;;;4.13;0.40;;;;;;;21.23;67.54;100397.25;7387358;19;20344;-66
2022/07/25 07:25:16;;;;;;;4.10;0.60;;;;;;;21.27;67.59;100396.53;7390886;19;20027;-66
2022/07/25 07:27:46;;;;;;;6.25;0.70;;;;;;;21.30;66.80;100396.06;7391242;19;20022;-66
2022/07/25 07:30:13;;;;;;;4.20;0.60;;;;;;;21.34;67.11;100393.72;7388575;19;20029;-66
2022/07/25 07:32:45;;;;;;;1.83;0.30;;;;;;;21.34;65.81;100391.03;7391216;19;20215;-66
2022/07/25 07:35:18;;;;;;;5.05;0.40;;;;;;;21.34;66.35;100404.44;7386549;19;20019;-67
2022/07/25 07:37:45;;;;;;;3.13;0.50;;;;;;;21.36;66.18;100391.63;7391551;19;20019;-66
2022/07/25 07:40:16;;;;;;;3.97;0.40;;;;;;;21.41;66.60;100399.78;7390648;19;20089;-67
2022/07/25 07:42:47;;;;;;;3.58;0.65;;;;;;;21.45;66.34;100398.25;7388981;19;20030;-66
2022/07/25 07:45:21;;;;;;;3.25;0.60;;;;;;;21.50;65.38;100416.28;7390654;19;20010;-65
2022/07/25 07:47:51;;;;;;;3.88;0.65;;;;;;;21.50;64.89;100414.44;7389964;19;20356;-66
2022/07/25 07:50:21;;;;;;;2.38;0.35;;;;;;;21.48;64.40;100416.56;7384499;19;20011;-66
2022/07/25 07:52:49;;;;;;;7.28;0.30;;;;;;;21.49;65.04;100415.47;7385671;19;20082;-63
2022/07/25 07:58:03;;;;;;;4.30;0.32;;;;;;;21.49;65.60;100409.31;7387892;19;20010;-63
2022/07/25 08:00:30;;;;;;;5.47;0.47;;;;;;;21.55;64.34;100408.38;7389914;19;20014;-62
2022/07/25 08:02:59;;;;;;;3.47;0.38;;;;;;;21.55;64.48;100398.47;7390325;19;20408;-62
2022/07/25 08:05:34;;;;;;;2.83;0.30;;;;;;;21.51;65.07;100400.00;7388246;19;20022;-62
2022/07/25 08:08:04;;;;;;;3.95;0.55;;;;;;;21.52;64.41;100406.19;7391473;19;20483;-62
2022/07/25 08:10:35;;;;;;;2.08;0.30;;;;;;;21.44;64.80;100395.81;7386864;19;20027;-64
2022/07/25 08:13:15;;;;;;;1.52;0.30;;;;;;;21.40;64.23;100390.13;7390724;19;20018;-66
2022/07/25 08:15:44;;;;;;;2.88;0.40;;;;;;;21.36;64.10;100399.66;7388820;19;20014;-63
2022/07/25 08:18:11;;;;;;;1.73;0.30;;;;;;;21.39;65.23;100409.09;7389048;19;20019;-63
2022/07/25 08:20:45;;;;;;;2.53;0.30;;;;;;;21.45;63.20;100408.16;7382448;19;20016;-63
2022/07/25 08:23:12;;;;;;;3.97;0.30;;;;;;;21.57;64.08;100406.28;7388105;19;20025;-63
2022/07/25 08:25:40;;;;;;;4.22;0.38;;;;;;;21.67;63.64;100404.63;7388938;19;20014;-62
2022/07/25 08:28:07;;;;;;;3.30;0.30;;;;;;;21.76;62.77;100415.78;7384345;19;20483;-62
2022/07/25 08:30:36;;;;;;;3.40;0.20;;;;;;;21.83;61.61;100407.63;7386856;19;20038;-63
2022/07/25 08:33:09;;;;;;;1.48;0.28;;;;;;;21.85;61.01;100421.59;7388361;19;20405;-67
2022/07/25 08:35:38;;;;;;;3.25;0.20;;;;;;;21.89;61.40;100425.44;7385847;19;20449;-65
2022/07/25 08:38:07;;;;;;;2.28;0.30;;;;;;;21.85;59.74;100421.59;7387806;19;20018;-65
2022/07/25 08:40:34;;;;;;;1.63;0.20;;;;;;;21.87;61.25;100430.22;7388319;19;20082;-66
2022/07/25 08:43:03;;;;;;;1.10;0.30;;;;;;;21.86;60.69;100428.59;7386092;19;20031;-65
2022/07/25 08:45:32;;;;;;;2.33;0.28;;;;;;;21.82;60.31;100430.13;7387493;19;20041;-65
2022/07/25 08:48:00;;;;;;;2.00;0.30;;;;;;;21.82;61.19;100435.47;7386814;19;20379;-66
2022/07/25 08:50:28;;;;;;;0.73;0.20;;;;;;;21.85;61.56;100432.31;7383173;19;20018;-68
2022/07/25 08:52:56;;;;;;;4.25;0.68;;;;;;;21.92;65.07;100438.38;7386121;19;20472;-65
2022/07/25 08:55:44;;;;;;;2.55;0.40;;;;;;;21.98;64.52;100443.63;7386513;19;20011;-65
2022/07/25 08:58:14;;;;;;;3.95;1.05;;;;;;;21.98;61.47;100443.63;7386764;19;20034;-65
2022/07/25 09:00:42;;;;;;;4.93;0.30;;;;;;;21.96;62.35;100444.91;7388438;19;20035;-65
2022/07/25 09:03:10;;;;;;;4.40;0.63;;;;;;;21.98;61.82;100446.31;7387831;19;20535;-65
2022/07/25 09:05:38;;;;;;;2.38;0.30;;;;;;;21.99;60.98;100442.56;7383471;19;20043;-65
2022/07/25 09:08:09;;;;;;;4.70;0.22;;;;;;;22.02;60.63;100431.38;7386463;19;20505;-67
2022/07/25 09:10:38;;;;;;;2.70;0.30;;;;;;;22.07;61.22;100438.69;7384785;19;20020;-66
2022/07/25 09:13:13;;;;;;;1.55;0.20;;;;;;;22.14;60.90;100448.25;7387717;19;20440;-66
2022/07/25 09:15:48;;;;;;;2.33;0.30;;;;;;;22.23;59.59;100440.63;7386090;19;20011;-66
2022/07/25 09:18:18;;;;;;;5.45;0.40;;;;;;;22.28;59.66;100454.13;7386681;19;20035;-66
2022/07/25 09:20:57;;;;;;;2.75;0.30;;;;;;;22.32;60.30;100459.81;7383583;19;20551;-64
2022/07/25 09:23:35;;;;;;;3.47;0.20;;;;;;;22.35;59.69;100445.97;7387975;19;20018;-67
2022/07/25 09:26:08;;;;;;;1.42;0.10;;;;;;;22.39;59.21;100455.16;7385623;19;20546;-65
2022/07/25 09:28:46;;;;;;;4.32;0.20;;;;;;;22.41;59.64;100453.03;7386492;19;20026;-66
2022/07/25 09:31:15;;;;;;;3.03;0.10;;;;;;;22.42;59.08;100460.03;7386147;19;20373;-66
2022/07/25 09:33:55;;;;;;;1.05;0.20;;;;;;;22.45;59.51;100467.59;7383916;19;20007;-64
2022/07/25 09:36:22;;;;;;;0.68;0.10;;;;;;;22.47;58.98;100463.63;7385430;19;20011;-64
2022/07/25 09:38:54;;;;;;;0.85;0.10;;;;;;;22.54;58.56;100466.16;7383381;19;20015;-65
2022/07/25 09:41:21;;;;;;;2.13;0.20;;;;;;;22.60;58.43;100471.34;7383868;19;20014;-64
2022/07/25 09:43:49;;;;;;;1.15;0.10;;;;;;;22.64;57.69;100468.22;7383029;19;20014;-66
2022/07/25 09:46:16;;;;;;;2.65;0.10;;;;;;;22.68;58.56;100472.03;7387224;19;20450;-66
2022/07/25 09:48:44;;;;;;;1.55;0.10;;;;;;;22.76;57.17;100456.38;7383110;19;20022;-68
2022/07/25 09:51:11;;;;;;;0.40;0.10;;;;;;;22.82;56.52;100468.84;7384290;19;20345;-65
2022/07/25 09:53:39;;;;;;;3.40;0.75;;;;;;;22.84;56.89;100468.59;7384806;19;20014;-65
2022/07/25 09:56:07;;;;;;;1.10;0.25;;;;;;;22.88;56.74;100472.44;7384396;19;20570;-65
2022/07/25 09:58:34;;;;;;;4.20;0.10;;;;;;;22.91;56.81;100467.38;7386218;19;20425;-65
2022/07/25 10:01:04;;;;;;;3.03;0.32;;;;;;;22.91;55.49;100474.63;7387057;19;20717;-65
2022/07/25 10:03:49;;;;;;;1.58;0.13;;;;;;;22.87;56.40;100474.28;7383716;19;20010;-65
2022/07/25 10:06:20;;;;;;;1.30;0.10;;;;;;;22.90;57.71;100478.38;7385291;19;20089;-66
2022/07/25 10:08:49;;;;;;;0.63;0.10;;;;;;;22.89;55.92;100472.19;7385875;19;20014;-67
2022/07/25 10:11:24;;;;;;;1.55;0.10;;;;;;;22.90;56.51;100481.06;7385563;19;20013;-65
2022/07/25 10:13:55;;;;;;;2.42;0.10;;;;;;;22.90;55.85;100478.38;7385470;19;20382;-65
2022/07/25 10:16:24;;;;;;;1.40;0.10;;;;;;;22.91;55.77;100471.94;7385856;19;20037;-64
2022/07/25 10:18:57;;;;;;;4.40;0.10;;;;;;;22.93;56.95;100485.94;7383742;19;20018;-65
2022/07/25 10:21:25;;;;;;;0.60;0.10;;;;;;;22.93;55.66;100480.56;7385837;19;20082;-65
2022/07/25 10:24:04;;;;;;;0.60;0.17;;;;;;;22.92;57.07;100482.44;7385457;19;20493;-66
2022/07/25 10:26:35;;;;;;;1.38;0.10;;;;;;;22.91;55.71;100491.53;7385026;19;20044;-69
2022/07/25 10:29:08;;;;;;;3.53;0.40;;;;;;;22.84;56.28;100495.44;7384820;19;20024;-65
2022/07/25 10:31:38;;;;;;;1.08;0.10;;;;;;;22.81;57.69;100498.59;7383275;19;20296;-66
2022/07/25 10:34:08;;;;;;;0.95;0.13;;;;;;;22.82;57.68;100495.69;7382307;19;20324;-66
2022/07/25 10:36:44;;;;;;;2.00;0.10;;;;;;;22.85;57.54;100508.63;7383799;19;20683;-66
2022/07/25 10:39:14;;;;;;;1.95;0.10;;;;;;;22.90;57.74;100507.91;7382837;19;20030;-65
2022/07/25 10:41:53;;;;;;;2.00;0.10;;;;;;;22.94;57.00;100515.22;7383118;19;20003;-66
2022/07/25 10:44:20;;;;;;;2.63;0.10;;;;;;;22.96;56.32;100505.03;7382137;19;20028;-67
2022/07/25 10:46:49;;;;;;;5.45;0.10;;;;;;;22.97;56.53;100514.72;7385103;19;20014;-62
2022/07/25 10:49:17;;;;;;;1.65;0.17;;;;;;;22.97;56.83;100516.59;7381671;19;20015;-62
2022/07/25 10:51:55;;;;;;;2.90;0.43;;;;;;;22.97;56.61;100538.06;7380145;19;20010;-62
2022/07/25 10:54:22;;;;;;;0.55;0.10;;;;;;;22.93;57.07;100526.19;7383718;19;20082;-61
2022/07/25 10:56:56;;;;;;;1.17;0.20;;;;;;;22.83;57.28;100523.31;7384419;19;20108;-63
2022/07/25 10:59:27;;;;;;;1.27;0.10;;;;;;;22.77;56.84;100522.41;7384856;19;20134;-61
2022/07/25 11:01:54;;;;;;;3.85;0.10;;;;;;;22.80;57.27;100523.81;7384133;19;20293;-62
2022/07/25 11:04:22;;;;;;;5.30;0.30;;;;;;;22.81;57.02;100528.09;7378874;19;20014;-63
2022/07/25 11:06:50;;;;;;;0.63;0.10;;;;;;;22.86;57.45;100539.75;7383681;19;20021;-63
2022/07/25 11:09:23;;;;;;;2.25;0.20;;;;;;;22.91;57.94;100526.44;7384915;19;20511;-62
2022/07/25 11:11:58;;;;;;;0.93;0.10;;;;;;;22.91;58.23;100531.78;7384798;19;20018;-62
2022/07/25 11:14:35;;;;;;;1.30;0.10;;;;;;;22.89;59.02;100533.91;7382732;19;20022;-65
2022/07/25 11:17:17;;;;;;;0.47;0.10;;;;;;;22.86;59.26;100537.06;7382977;19;20267;-66
2022/07/25 11:20:00;;;;;;;1.83;0.10;;;;;;;22.83;59.39;100532.19;7381207;19;20031;-66
2022/07/25 11:22:28;;;;;;;0.68;0.10;;;;;;;22.80;59.98;100537.25;7382995;19;20346;-62
2022/07/25 11:24:59;;;;;;;1.00;0.10;;;;;;;22.80;59.58;100551.47;7383091;19;20018;-62
2022/07/25 11:27:31;;;;;;;5.03;0.20;;;;;;;22.78;60.25;100548.19;7382618;19;20018;-63
2022/07/25 11:30:14;;;;;;;4.85;0.20;;;;;;;22.75;60.48;100554.06;7379718;19;20501;-61
2022/07/25 11:32:43;;;;;;;1.73;0.20;;;;;;;22.73;61.46;100549.97;7383693;19;20015;-65
2022/07/25 11:35:12;;;;;;;3.65;0.25;;;;;;;22.68;61.69;100549.84;7377732;19;20027;-64